sensor_id;sensor_type;location;lat;lon;timestamp;P1;durP1;ratioP1;P2;durP2;ratioP2
39264;SDS011;42646;51.910;7.724;2022-09-03T00:01:26;1.75;;;1.00;;
39264;SDS011;42646;51.910;7.724;2022-09-03T00:04:01;2.75;;;1.10;;
39264;SDS011;42646;51.910;7.724;2022-09-03T00:06:33;2.20;;;1.08;;
39264;SDS011;42646;51.910;7.724;2022-09-03T00:09:08;2.95;;;1.00;;
39264;SDS011;42646;51.910;7.724;2022-09-03T00:11:45;3.10;;;1.20;;
39264;SDS011;42646;51.910;7.724;2022-09-03T00:14:19;2.17;;;1.15;;
39264;SDS011;42646;51.910;7.724;2022-09-03T00:16:51;2.05;;;1.17;;
39264;SDS011;42646;51.910;7.724;2022-09-03T00:19:22;2.73;;;1.00;;
39264;SDS011;42646;51.910;7.724;2022-09-03T00:21:55;2.42;;;1.48;;
39264;SDS011;42646;51.910;7.724;2022-09-03T00:24:27;3.85;;;1.20;;
39264;SDS011;42646;51.910;7.724;2022-09-03T00:26:59;2.50;;;1.10;;
39264;SDS011;42646;51.910;7.724;2022-09-03T00:29:31;1.90;;;1.10;;
39264;SDS011;42646;51.910;7.724;2022-09-03T00:32:05;2.63;;;1.20;;
39264;SDS011;42646;51.910;7.724;2022-09-03T00:34:37;2.13;;;1.17;;
39264;SDS011;42646;51.910;7.724;2022-09-03T00:37:08;2.40;;;1.25;;
39264;SDS011;42646;51.910;7.724;2022-09-03T00:39:41;2.55;;;1.10;;
39264;SDS011;42646;51.910;7.724;2022-09-03T00:42:15;2.50;;;1.00;;
39264;SDS011;42646;51.910;7.724;2022-09-03T00:45:06;2.90;;;1.30;;
39264;SDS011;42646;51.910;7.724;2022-09-03T00:47:44;2.28;;;1.13;;
39264;SDS011;42646;51.910;7.724;2022-09-03T00:50:24;2.33;;;1.23;;
39264;SDS011;42646;51.910;7.724;2022-09-03T00:53:03;2.00;;;1.10;;
39264;SDS011;42646;51.910;7.724;2022-09-03T00:55:39;2.40;;;1.20;;
39264;SDS011;42646;51.910;7.724;2022-09-03T00:58:18;2.60;;;1.10;;
39264;SDS011;42646;51.910;7.724;2022-09-03T01:00:57;2.42;;;1.13;;
39264;SDS011;42646;51.910;7.724;2022-09-03T01:03:29;1.83;;;1.00;;
39264;SDS011;42646;51.910;7.724;2022-09-03T01:06:13;2.42;;;1.23;;
39264;SDS011;42646;51.910;7.724;2022-09-03T01:08:49;2.67;;;1.20;;
39264;SDS011;42646;51.910;7.724;2022-09-03T01:11:28;2.72;;;1.17;;
39264;SDS011;42646;51.910;7.724;2022-09-03T01:14:08;2.13;;;1.23;;
39264;SDS011;42646;51.910;7.724;2022-09-03T01:16:46;1.65;;;0.95;;
39264;SDS011;42646;51.910;7.724;2022-09-03T01:19:26;1.95;;;1.08;;
39264;SDS011;42646;51.910;7.724;2022-09-03T01:22:16;3.33;;;1.30;;
39264;SDS011;42646;51.910;7.724;2022-09-03T01:25:05;1.50;;;1.20;;
39264;SDS011;42646;51.910;7.724;2022-09-03T01:27:55;2.22;;;1.20;;
39264;SDS011;42646;51.910;7.724;2022-09-03T01:30:28;2.33;;;1.08;;
39264;SDS011;42646;51.910;7.724;2022-09-03T01:33:00;2.25;;;1.02;;
39264;SDS011;42646;51.910;7.724;2022-09-03T01:35:36;2.55;;;1.20;;
39264;SDS011;42646;51.910;7.724;2022-09-03T01:38:11;2.80;;;1.20;;
39264;SDS011;42646;51.910;7.724;2022-09-03T01:40:52;6.25;;;1.40;;
39264;SDS011;42646;51.910;7.724;2022-09-03T01:43:49;3.58;;;1.30;;
39264;SDS011;42646;51.910;7.724;2022-09-03T01:46:24;2.90;;;1.20;;
39264;SDS011;42646;51.910;7.724;2022-09-03T01:48:59;1.98;;;1.10;;
39264;SDS011;42646;51.910;7.724;2022-09-03T01:51:37;3.47;;;1.40;;
39264;SDS011;42646;51.910;7.724;2022-09-03T01:57:17;1.40;;;1.00;;
39264;SDS011;42646;51.910;7.724;2022-09-03T02:00:04;2.45;;;1.05;;
39264;SDS011;42646;51.910;7.724;2022-09-03T02:02:38;3.88;;;1.30;;
39264;SDS011;42646;51.910;7.724;2022-09-03T02:05:08;2.45;;;1.27;;
39264;SDS011;42646;51.910;7.724;2022-09-03T02:07:38;2.63;;;1.20;;
39264;SDS011;42646;51.910;7.724;2022-09-03T02:10:10;2.85;;;1.10;;
39264;SDS011;42646;51.910;7.724;2022-09-03T02:12:39;2.17;;;1.25;;
39264;SDS011;42646;51.910;7.724;2022-09-03T02:15:12;2.15;;;1.30;;
39264;SDS011;42646;51.910;7.724;2022-09-03T02:17:41;2.10;;;1.02;;
39264;SDS011;42646;51.910;7.724;2022-09-03T02:20:13;2.53;;;1.17;;
39264;SDS011;42646;51.910;7.724;2022-09-03T02:22:45;4.47;;;1.73;;
39264;SDS011;42646;51.910;7.724;2022-09-03T02:25:14;2.22;;;1.20;;
39264;SDS011;42646;51.910;7.724;2022-09-03T02:27:42;2.38;;;1.20;;
39264;SDS011;42646;51.910;7.724;2022-09-03T02:30:12;2.55;;;1.10;;
39264;SDS011;42646;51.910;7.724;2022-09-03T02:32:40;1.85;;;1.10;;
39264;SDS011;42646;51.910;7.724;2022-09-03T02:35:08;2.03;;;1.20;;
39264;SDS011;42646;51.910;7.724;2022-09-03T02:37:38;2.67;;;1.20;;
39264;SDS011;42646;51.910;7.724;2022-09-03T02:40:07;2.63;;;1.23;;
39264;SDS011;42646;51.910;7.724;2022-09-03T02:42:36;1.70;;;1.08;;
39264;SDS011;42646;51.910;7.724;2022-09-03T02:45:06;2.47;;;1.20;;
39264;SDS011;42646;51.910;7.724;2022-09-03T02:47:41;1.80;;;1.20;;
39264;SDS011;42646;51.910;7.724;2022-09-03T02:50:15;3.55;;;1.70;;
39264;SDS011;42646;51.910;7.724;2022-09-03T02:52:42;1.85;;;1.20;;
39264;SDS011;42646;51.910;7.724;2022-09-03T02:55:10;2.17;;;1.13;;
39264;SDS011;42646;51.910;7.724;2022-09-03T02:57:38;3.22;;;1.20;;
39264;SDS011;42646;51.910;7.724;2022-09-03T03:00:06;2.55;;;1.20;;
39264;SDS011;42646;51.910;7.724;2022-09-03T03:02:35;3.70;;;1.10;;
39264;SDS011;42646;51.910;7.724;2022-09-03T03:05:04;1.67;;;1.00;;
39264;SDS011;42646;51.910;7.724;2022-09-03T03:07:34;2.03;;;1.17;;
39264;SDS011;42646;51.910;7.724;2022-09-03T03:10:04;1.38;;;1.05;;
39264;SDS011;42646;51.910;7.724;2022-09-03T03:12:32;1.77;;;1.00;;
39264;SDS011;42646;51.910;7.724;2022-09-03T03:15:00;1.98;;;1.10;;
39264;SDS011;42646;51.910;7.724;2022-09-03T03:17:28;2.67;;;1.15;;
39264;SDS011;42646;51.910;7.724;2022-09-03T03:19:56;2.00;;;1.05;;
39264;SDS011;42646;51.910;7.724;2022-09-03T03:22:25;2.40;;;1.20;;
39264;SDS011;42646;51.910;7.724;2022-09-03T03:24:53;1.98;;;1.10;;
39264;SDS011;42646;51.910;7.724;2022-09-03T03:27:22;2.22;;;1.20;;
39264;SDS011;42646;51.910;7.724;2022-09-03T03:29:51;2.08;;;1.10;;
39264;SDS011;42646;51.910;7.724;2022-09-03T03:32:20;3.08;;;1.20;;
39264;SDS011;42646;51.910;7.724;2022-09-03T03:34:47;2.60;;;1.10;;
39264;SDS011;42646;51.910;7.724;2022-09-03T03:37:15;2.28;;;1.20;;
39264;SDS011;42646;51.910;7.724;2022-09-03T03:39:44;2.42;;;1.20;;
39264;SDS011;42646;51.910;7.724;2022-09-03T03:42:11;2.15;;;1.08;;
39264;SDS011;42646;51.910;7.724;2022-09-03T03:44:39;1.63;;;1.05;;
39264;SDS011;42646;51.910;7.724;2022-09-03T03:47:09;2.05;;;1.20;;
39264;SDS011;42646;51.910;7.724;2022-09-03T03:49:37;3.30;;;1.17;;
39264;SDS011;42646;51.910;7.724;2022-09-03T03:52:05;2.83;;;1.10;;
39264;SDS011;42646;51.910;7.724;2022-09-03T03:54:32;3.72;;;1.30;;
39264;SDS011;42646;51.910;7.724;2022-09-03T03:57:01;2.88;;;1.10;;
39264;SDS011;42646;51.910;7.724;2022-09-03T03:59:29;2.13;;;1.20;;
39264;SDS011;42646;51.910;7.724;2022-09-03T04:01:57;2.58;;;1.17;;
39264;SDS011;42646;51.910;7.724;2022-09-03T04:04:24;2.53;;;1.10;;
39264;SDS011;42646;51.910;7.724;2022-09-03T04:06:52;2.65;;;1.17;;
39264;SDS011;42646;51.910;7.724;2022-09-03T04:09:20;3.95;;;1.10;;
39264;SDS011;42646;51.910;7.724;2022-09-03T04:11:47;2.72;;;1.20;;
39264;SDS011;42646;51.910;7.724;2022-09-03T04:14:17;2.35;;;1.10;;
39264;SDS011;42646;51.910;7.724;2022-09-03T04:16:45;2.47;;;1.20;;
39264;SDS011;42646;51.910;7.724;2022-09-03T04:19:12;2.35;;;1.20;;
39264;SDS011;42646;51.910;7.724;2022-09-03T04:21:40;2.10;;;1.10;;
39264;SDS011;42646;51.910;7.724;2022-09-03T04:24:08;2.03;;;1.13;;
39264;SDS011;42646;51.910;7.724;2022-09-03T04:26:35;3.13;;;1.10;;
39264;SDS011;42646;51.910;7.724;2022-09-03T04:29:04;1.80;;;1.10;;
39264;SDS011;42646;51.910;7.724;2022-09-03T04:31:35;2.50;;;1.10;;
39264;SDS011;42646;51.910;7.724;2022-09-03T04:34:05;1.90;;;1.10;;
39264;SDS011;42646;51.910;7.724;2022-09-03T04:36:32;1.73;;;1.10;;
39264;SDS011;42646;51.910;7.724;2022-09-03T04:39:00;2.83;;;1.20;;
39264;SDS011;42646;51.910;7.724;2022-09-03T04:41:29;3.22;;;1.20;;
39264;SDS011;42646;51.910;7.724;2022-09-03T04:43:58;2.15;;;1.10;;
39264;SDS011;42646;51.910;7.724;2022-09-03T04:46:26;1.80;;;1.10;;
39264;SDS011;42646;51.910;7.724;2022-09-03T04:49:00;3.17;;;1.20;;
39264;SDS011;42646;51.910;7.724;2022-09-03T04:51:28;1.63;;;1.02;;
39264;SDS011;42646;51.910;7.724;2022-09-03T04:53:57;2.50;;;1.20;;
39264;SDS011;42646;51.910;7.724;2022-09-03T04:56:27;6.35;;;1.60;;
39264;SDS011;42646;51.910;7.724;2022-09-03T04:58:57;2.17;;;1.23;;
39264;SDS011;42646;51.910;7.724;2022-09-03T05:01:27;2.95;;;1.10;;
39264;SDS011;42646;51.910;7.724;2022-09-03T05:03:56;2.90;;;1.25;;
39264;SDS011;42646;51.910;7.724;2022-09-03T05:06:26;2.28;;;1.25;;
39264;SDS011;42646;51.910;7.724;2022-09-03T05:08:55;2.60;;;1.20;;
39264;SDS011;42646;51.910;7.724;2022-09-03T05:11:23;2.95;;;1.20;;
39264;SDS011;42646;51.910;7.724;2022-09-03T05:13:52;2.75;;;1.25;;
39264;SDS011;42646;51.910;7.724;2022-09-03T05:16:21;3.03;;;1.40;;
39264;SDS011;42646;51.910;7.724;2022-09-03T05:18:50;2.40;;;1.10;;
39264;SDS011;42646;51.910;7.724;2022-09-03T05:21:19;3.17;;;1.10;;
39264;SDS011;42646;51.910;7.724;2022-09-03T05:23:49;3.55;;;1.30;;
39264;SDS011;42646;51.910;7.724;2022-09-03T05:26:18;2.40;;;1.30;;
39264;SDS011;42646;51.910;7.724;2022-09-03T05:28:47;3.72;;;1.23;;
39264;SDS011;42646;51.910;7.724;2022-09-03T05:31:15;2.88;;;1.20;;
39264;SDS011;42646;51.910;7.724;2022-09-03T05:33:45;2.00;;;1.25;;
39264;SDS011;42646;51.910;7.724;2022-09-03T05:36:15;2.58;;;1.10;;
39264;SDS011;42646;51.910;7.724;2022-09-03T05:38:44;2.17;;;1.20;;
39264;SDS011;42646;51.910;7.724;2022-09-03T05:41:15;2.30;;;1.13;;
39264;SDS011;42646;51.910;7.724;2022-09-03T05:43:46;2.10;;;1.20;;
39264;SDS011;42646;51.910;7.724;2022-09-03T05:46:17;4.45;;;1.10;;
39264;SDS011;42646;51.910;7.724;2022-09-03T05:48:45;2.60;;;1.10;;
39264;SDS011;42646;51.910;7.724;2022-09-03T05:51:14;4.18;;;1.40;;
39264;SDS011;42646;51.910;7.724;2022-09-03T05:53:43;2.38;;;1.23;;
39264;SDS011;42646;51.910;7.724;2022-09-03T05:56:13;3.33;;;1.33;;
39264;SDS011;42646;51.910;7.724;2022-09-03T05:58:44;2.17;;;1.40;;
39264;SDS011;42646;51.910;7.724;2022-09-03T06:01:14;2.33;;;1.40;;
39264;SDS011;42646;51.910;7.724;2022-09-03T06:03:43;4.03;;;1.30;;
39264;SDS011;42646;51.910;7.724;2022-09-03T06:06:11;3.33;;;1.20;;
39264;SDS011;42646;51.910;7.724;2022-09-03T06:08:40;2.20;;;1.30;;
39264;SDS011;42646;51.910;7.724;2022-09-03T06:11:10;2.67;;;1.30;;
39264;SDS011;42646;51.910;7.724;2022-09-03T06:13:39;2.67;;;1.20;;
39264;SDS011;42646;51.910;7.724;2022-09-03T06:16:08;3.10;;;1.30;;
39264;SDS011;42646;51.910;7.724;2022-09-03T06:18:36;2.28;;;1.23;;
39264;SDS011;42646;51.910;7.724;2022-09-03T06:21:05;4.35;;;1.38;;
39264;SDS011;42646;51.910;7.724;2022-09-03T06:23:34;3.53;;;1.23;;
39264;SDS011;42646;51.910;7.724;2022-09-03T06:26:06;2.58;;;1.38;;
39264;SDS011;42646;51.910;7.724;2022-09-03T06:28:36;2.92;;;1.10;;
39264;SDS011;42646;51.910;7.724;2022-09-03T06:31:07;2.85;;;1.20;;
39264;SDS011;42646;51.910;7.724;2022-09-03T06:33:36;2.95;;;1.30;;
39264;SDS011;42646;51.910;7.724;2022-09-03T06:36:05;3.25;;;1.17;;
39264;SDS011;42646;51.910;7.724;2022-09-03T06:38:35;2.17;;;1.20;;
39264;SDS011;42646;51.910;7.724;2022-09-03T06:41:04;2.78;;;1.38;;
39264;SDS011;42646;51.910;7.724;2022-09-03T06:43:34;3.10;;;1.63;;
39264;SDS011;42646;51.910;7.724;2022-09-03T06:46:05;3.17;;;1.38;;
39264;SDS011;42646;51.910;7.724;2022-09-03T06:48:36;2.70;;;1.38;;
39264;SDS011;42646;51.910;7.724;2022-09-03T06:51:06;2.55;;;1.50;;
39264;SDS011;42646;51.910;7.724;2022-09-03T06:53:35;4.65;;;1.60;;
39264;SDS011;42646;51.910;7.724;2022-09-03T06:56:05;2.50;;;1.42;;
39264;SDS011;42646;51.910;7.724;2022-09-03T06:58:34;2.70;;;1.35;;
39264;SDS011;42646;51.910;7.724;2022-09-03T07:01:08;4.00;;;1.40;;
39264;SDS011;42646;51.910;7.724;2022-09-03T07:03:38;4.10;;;1.50;;
39264;SDS011;42646;51.910;7.724;2022-09-03T07:06:07;2.40;;;1.30;;
39264;SDS011;42646;51.910;7.724;2022-09-03T07:08:36;2.67;;;1.42;;
39264;SDS011;42646;51.910;7.724;2022-09-03T07:11:05;2.75;;;1.45;;
39264;SDS011;42646;51.910;7.724;2022-09-03T07:13:35;2.97;;;1.40;;
39264;SDS011;42646;51.910;7.724;2022-09-03T07:16:06;3.60;;;1.40;;
39264;SDS011;42646;51.910;7.724;2022-09-03T07:18:37;2.47;;;1.25;;
39264;SDS011;42646;51.910;7.724;2022-09-03T07:21:06;2.78;;;1.50;;
39264;SDS011;42646;51.910;7.724;2022-09-03T07:23:36;2.83;;;1.30;;
39264;SDS011;42646;51.910;7.724;2022-09-03T07:26:07;3.17;;;1.50;;
39264;SDS011;42646;51.910;7.724;2022-09-03T07:28:38;2.80;;;1.50;;
39264;SDS011;42646;51.910;7.724;2022-09-03T07:31:09;6.93;;;1.40;;
39264;SDS011;42646;51.910;7.724;2022-09-03T07:33:39;2.33;;;1.20;;
39264;SDS011;42646;51.910;7.724;2022-09-03T07:36:07;2.42;;;1.40;;
39264;SDS011;42646;51.910;7.724;2022-09-03T07:38:37;2.55;;;1.38;;
39264;SDS011;42646;51.910;7.724;2022-09-03T07:41:05;4.90;;;1.40;;
39264;SDS011;42646;51.910;7.724;2022-09-03T07:43:35;3.65;;;1.20;;
39264;SDS011;42646;51.910;7.724;2022-09-03T07:46:05;3.95;;;1.30;;
39264;SDS011;42646;51.910;7.724;2022-09-03T07:48:35;3.50;;;1.27;;
39264;SDS011;42646;51.910;7.724;2022-09-03T07:51:03;2.95;;;1.50;;
39264;SDS011;42646;51.910;7.724;2022-09-03T07:53:30;2.70;;;1.30;;
39264;SDS011;42646;51.910;7.724;2022-09-03T07:56:02;2.22;;;1.30;;
39264;SDS011;42646;51.910;7.724;2022-09-03T07:58:31;2.58;;;1.23;;
39264;SDS011;42646;51.910;7.724;2022-09-03T08:01:02;3.42;;;1.52;;
39264;SDS011;42646;51.910;7.724;2022-09-03T08:03:31;2.90;;;1.20;;
39264;SDS011;42646;51.910;7.724;2022-09-03T08:06:02;3.30;;;1.25;;
39264;SDS011;42646;51.910;7.724;2022-09-03T08:08:32;2.35;;;1.30;;
39264;SDS011;42646;51.910;7.724;2022-09-03T08:11:05;3.92;;;1.38;;
39264;SDS011;42646;51.910;7.724;2022-09-03T08:13:36;4.40;;;1.30;;
39264;SDS011;42646;51.910;7.724;2022-09-03T08:16:06;3.50;;;1.50;;
39264;SDS011;42646;51.910;7.724;2022-09-03T08:18:34;2.78;;;1.30;;
39264;SDS011;42646;51.910;7.724;2022-09-03T08:21:06;3.13;;;1.30;;
39264;SDS011;42646;51.910;7.724;2022-09-03T08:23:35;4.37;;;1.30;;
39264;SDS011;42646;51.910;7.724;2022-09-03T08:26:04;4.13;;;1.40;;
39264;SDS011;42646;51.910;7.724;2022-09-03T08:28:32;4.15;;;1.30;;
39264;SDS011;42646;51.910;7.724;2022-09-03T08:31:03;3.67;;;1.30;;
39264;SDS011;42646;51.910;7.724;2022-09-03T08:36:09;2.90;;;1.35;;
39264;SDS011;42646;51.910;7.724;2022-09-03T08:38:39;4.07;;;1.20;;
39264;SDS011;42646;51.910;7.724;2022-09-03T08:41:11;4.45;;;1.17;;
39264;SDS011;42646;51.910;7.724;2022-09-03T08:43:51;1.83;;;1.10;;
39264;SDS011;42646;51.910;7.724;2022-09-03T08:46:32;3.70;;;1.10;;
39264;SDS011;42646;51.910;7.724;2022-09-03T08:49:07;2.28;;;1.20;;
39264;SDS011;42646;51.910;7.724;2022-09-03T08:51:41;3.05;;;1.40;;
39264;SDS011;42646;51.910;7.724;2022-09-03T08:54:10;2.67;;;1.13;;
39264;SDS011;42646;51.910;7.724;2022-09-03T08:56:40;5.78;;;1.35;;
39264;SDS011;42646;51.910;7.724;2022-09-03T08:59:09;3.80;;;1.17;;
39264;SDS011;42646;51.910;7.724;2022-09-03T09:01:40;2.50;;;1.40;;
39264;SDS011;42646;51.910;7.724;2022-09-03T09:04:23;5.90;;;1.40;;
39264;SDS011;42646;51.910;7.724;2022-09-03T09:07:06;2.60;;;1.25;;
39264;SDS011;42646;51.910;7.724;2022-09-03T09:09:41;2.17;;;1.20;;
39264;SDS011;42646;51.910;7.724;2022-09-03T09:12:18;2.60;;;1.35;;
39264;SDS011;42646;51.910;7.724;2022-09-03T09:15:07;3.17;;;1.30;;
39264;SDS011;42646;51.910;7.724;2022-09-03T09:17:44;3.10;;;1.48;;
39264;SDS011;42646;51.910;7.724;2022-09-03T09:20:23;3.47;;;1.50;;
39264;SDS011;42646;51.910;7.724;2022-09-03T09:23:00;3.03;;;1.23;;
39264;SDS011;42646;51.910;7.724;2022-09-03T09:25:31;4.53;;;1.40;;
39264;SDS011;42646;51.910;7.724;2022-09-03T09:28:07;2.53;;;1.25;;
39264;SDS011;42646;51.910;7.724;2022-09-03T09:30:43;2.65;;;1.40;;
39264;SDS011;42646;51.910;7.724;2022-09-03T09:33:13;3.22;;;1.27;;
39264;SDS011;42646;51.910;7.724;2022-09-03T09:35:41;3.00;;;1.27;;
39264;SDS011;42646;51.910;7.724;2022-09-03T09:38:11;3.38;;;1.33;;
39264;SDS011;42646;51.910;7.724;2022-09-03T09:40:42;3.55;;;1.30;;
39264;SDS011;42646;51.910;7.724;2022-09-03T09:43:11;2.20;;;1.20;;
39264;SDS011;42646;51.910;7.724;2022-09-03T09:45:41;2.72;;;1.35;;
39264;SDS011;42646;51.910;7.724;2022-09-03T09:48:20;3.88;;;1.27;;
39264;SDS011;42646;51.910;7.724;2022-09-03T09:51:02;2.88;;;1.40;;
39264;SDS011;42646;51.910;7.724;2022-09-03T09:53:32;2.88;;;1.20;;
39264;SDS011;42646;51.910;7.724;2022-09-03T09:56:00;3.58;;;1.40;;
39264;SDS011;42646;51.910;7.724;2022-09-03T09:58:29;3.20;;;1.40;;
39264;SDS011;42646;51.910;7.724;2022-09-03T10:01:02;3.97;;;1.20;;
39264;SDS011;42646;51.910;7.724;2022-09-03T10:03:39;3.88;;;1.67;;
39264;SDS011;42646;51.910;7.724;2022-09-03T10:06:14;5.00;;;1.50;;
39264;SDS011;42646;51.910;7.724;2022-09-03T10:09:08;3.83;;;1.20;;
39264;SDS011;42646;51.910;7.724;2022-09-03T10:11:39;5.25;;;1.42;;
39264;SDS011;42646;51.910;7.724;2022-09-03T10:14:12;2.65;;;1.27;;
39264;SDS011;42646;51.910;7.724;2022-09-03T10:16:46;2.55;;;1.45;;
39264;SDS011;42646;51.910;7.724;2022-09-03T10:19:22;2.67;;;1.20;;
39264;SDS011;42646;51.910;7.724;2022-09-03T10:22:00;5.88;;;1.40;;
39264;SDS011;42646;51.910;7.724;2022-09-03T10:24:37;3.90;;;1.58;;
39264;SDS011;42646;51.910;7.724;2022-09-03T10:27:15;3.78;;;1.35;;
39264;SDS011;42646;51.910;7.724;2022-09-03T10:29:44;3.53;;;1.50;;
39264;SDS011;42646;51.910;7.724;2022-09-03T10:32:16;3.58;;;1.30;;
39264;SDS011;42646;51.910;7.724;2022-09-03T10:35:02;2.85;;;1.25;;
39264;SDS011;42646;51.910;7.724;2022-09-03T10:37:38;2.58;;;1.10;;
39264;SDS011;42646;51.910;7.724;2022-09-03T10:40:16;2.67;;;1.30;;
39264;SDS011;42646;51.910;7.724;2022-09-03T10:45:46;3.80;;;1.30;;
39264;SDS011;42646;51.910;7.724;2022-09-03T10:48:26;5.30;;;1.50;;
39264;SDS011;42646;51.910;7.724;2022-09-03T10:51:15;2.80;;;1.30;;
39264;SDS011;42646;51.910;7.724;2022-09-03T10:59:17;2.40;;;1.23;;
39264;SDS011;42646;51.910;7.724;2022-09-03T11:01:56;2.67;;;1.10;;
39264;SDS011;42646;51.910;7.724;2022-09-03T11:04:42;4.53;;;1.38;;
39264;SDS011;42646;51.910;7.724;2022-09-03T11:07:19;9.65;;;1.70;;
39264;SDS011;42646;51.910;7.724;2022-09-03T11:09:51;4.32;;;1.50;;
39264;SDS011;42646;51.910;7.724;2022-09-03T11:12:25;2.45;;;1.40;;
39264;SDS011;42646;51.910;7.724;2022-09-03T11:14:58;3.47;;;1.30;;
39264;SDS011;42646;51.910;7.724;2022-09-03T11:17:31;3.80;;;1.42;;
39264;SDS011;42646;51.910;7.724;2022-09-03T11:20:06;2.80;;;1.30;;
39264;SDS011;42646;51.910;7.724;2022-09-03T11:22:41;3.22;;;1.45;;
39264;SDS011;42646;51.910;7.724;2022-09-03T11:25:11;2.80;;;1.60;;
39264;SDS011;42646;51.910;7.724;2022-09-03T11:27:47;2.35;;;1.10;;
39264;SDS011;42646;51.910;7.724;2022-09-03T11:30:22;2.65;;;1.35;;
39264;SDS011;42646;51.910;7.724;2022-09-03T11:32:54;3.20;;;1.40;;
39264;SDS011;42646;51.910;7.724;2022-09-03T11:35:26;5.13;;;1.50;;
39264;SDS011;42646;51.910;7.724;2022-09-03T11:37:57;4.83;;;1.60;;
39264;SDS011;42646;51.910;7.724;2022-09-03T11:40:31;2.90;;;1.30;;
39264;SDS011;42646;51.910;7.724;2022-09-03T11:43:05;2.97;;;1.25;;
39264;SDS011;42646;51.910;7.724;2022-09-03T11:45:38;4.05;;;1.20;;
39264;SDS011;42646;51.910;7.724;2022-09-03T11:48:16;2.05;;;1.20;;
39264;SDS011;42646;51.910;7.724;2022-09-03T11:50:51;3.08;;;1.50;;
39264;SDS011;42646;51.910;7.724;2022-09-03T11:53:23;3.10;;;1.48;;
39264;SDS011;42646;51.910;7.724;2022-09-03T11:55:53;2.95;;;1.40;;
39264;SDS011;42646;51.910;7.724;2022-09-03T11:58:25;2.70;;;1.40;;
39264;SDS011;42646;51.910;7.724;2022-09-03T12:00:58;2.20;;;1.30;;
39264;SDS011;42646;51.910;7.724;2022-09-03T12:03:29;8.43;;;1.45;;
39264;SDS011;42646;51.910;7.724;2022-09-03T12:06:13;3.42;;;1.42;;
39264;SDS011;42646;51.910;7.724;2022-09-03T12:12:01;3.65;;;1.40;;
39264;SDS011;42646;51.910;7.724;2022-09-03T12:14:42;5.70;;;1.60;;
39264;SDS011;42646;51.910;7.724;2022-09-03T12:17:19;3.35;;;1.42;;
39264;SDS011;42646;51.910;7.724;2022-09-03T12:19:57;4.22;;;1.35;;
39264;SDS011;42646;51.910;7.724;2022-09-03T12:22:26;2.70;;;1.45;;
39264;SDS011;42646;51.910;7.724;2022-09-03T12:24:55;3.83;;;1.40;;
39264;SDS011;42646;51.910;7.724;2022-09-03T12:27:37;4.57;;;1.48;;
39264;SDS011;42646;51.910;7.724;2022-09-03T12:30:16;3.88;;;1.27;;
39264;SDS011;42646;51.910;7.724;2022-09-03T12:32:46;3.58;;;1.35;;
39264;SDS011;42646;51.910;7.724;2022-09-03T12:35:17;3.38;;;1.42;;
39264;SDS011;42646;51.910;7.724;2022-09-03T12:38:06;4.88;;;1.50;;
39264;SDS011;42646;51.910;7.724;2022-09-03T12:40:41;2.40;;;1.42;;
39264;SDS011;42646;51.910;7.724;2022-09-03T12:43:29;3.55;;;1.33;;
39264;SDS011;42646;51.910;7.724;2022-09-03T12:46:13;3.53;;;1.38;;
39264;SDS011;42646;51.910;7.724;2022-09-03T12:48:45;3.30;;;1.30;;
39264;SDS011;42646;51.910;7.724;2022-09-03T12:51:39;4.05;;;1.60;;
39264;SDS011;42646;51.910;7.724;2022-09-03T12:54:21;2.72;;;1.40;;
39264;SDS011;42646;51.910;7.724;2022-09-03T12:56:50;2.30;;;1.33;;
39264;SDS011;42646;51.910;7.724;2022-09-03T12:59:21;3.60;;;1.40;;
39264;SDS011;42646;51.910;7.724;2022-09-03T13:01:55;2.72;;;1.50;;
39264;SDS011;42646;51.910;7.724;2022-09-03T13:04:27;4.63;;;1.48;;
39264;SDS011;42646;51.910;7.724;2022-09-03T13:06:59;2.35;;;1.23;;
39264;SDS011;42646;51.910;7.724;2022-09-03T13:09:30;4.75;;;1.70;;
39264;SDS011;42646;51.910;7.724;2022-09-03T13:12:01;3.33;;;1.30;;
39264;SDS011;42646;51.910;7.724;2022-09-03T13:14:40;2.78;;;1.40;;
39264;SDS011;42646;51.910;7.724;2022-09-03T13:17:13;2.35;;;1.30;;
39264;SDS011;42646;51.910;7.724;2022-09-03T13:19:55;2.78;;;1.50;;
39264;SDS011;42646;51.910;7.724;2022-09-03T13:22:33;2.80;;;1.40;;
39264;SDS011;42646;51.910;7.724;2022-09-03T13:25:10;2.08;;;1.30;;
39264;SDS011;42646;51.910;7.724;2022-09-03T13:27:44;2.83;;;1.40;;
39264;SDS011;42646;51.910;7.724;2022-09-03T13:30:21;4.32;;;1.38;;
39264;SDS011;42646;51.910;7.724;2022-09-03T13:32:59;2.25;;;1.30;;
39264;SDS011;42646;51.910;7.724;2022-09-03T13:35:32;2.85;;;1.50;;
39264;SDS011;42646;51.910;7.724;2022-09-03T13:38:06;5.80;;;1.58;;
39264;SDS011;42646;51.910;7.724;2022-09-03T13:40:41;2.00;;;1.30;;
39264;SDS011;42646;51.910;7.724;2022-09-03T13:43:19;2.80;;;1.55;;
39264;SDS011;42646;51.910;7.724;2022-09-03T13:45:55;3.80;;;1.42;;
39264;SDS011;42646;51.910;7.724;2022-09-03T13:48:29;3.05;;;1.48;;
39264;SDS011;42646;51.910;7.724;2022-09-03T13:51:21;2.88;;;1.70;;
39264;SDS011;42646;51.910;7.724;2022-09-03T13:54:00;3.65;;;1.63;;
39264;SDS011;42646;51.910;7.724;2022-09-03T13:56:35;3.70;;;1.50;;
39264;SDS011;42646;51.910;7.724;2022-09-03T13:59:16;2.78;;;1.40;;
39264;SDS011;42646;51.910;7.724;2022-09-03T14:01:57;4.03;;;1.60;;
39264;SDS011;42646;51.910;7.724;2022-09-03T14:04:39;2.35;;;1.48;;
39264;SDS011;42646;51.910;7.724;2022-09-03T14:07:16;3.38;;;1.60;;
39264;SDS011;42646;51.910;7.724;2022-09-03T14:09:53;5.40;;;1.65;;
39264;SDS011;42646;51.910;7.724;2022-09-03T14:12:33;3.40;;;1.60;;
39264;SDS011;42646;51.910;7.724;2022-09-03T14:15:10;3.38;;;1.80;;
39264;SDS011;42646;51.910;7.724;2022-09-03T14:17:45;5.25;;;1.75;;
39264;SDS011;42646;51.910;7.724;2022-09-03T14:20:21;5.25;;;1.80;;
39264;SDS011;42646;51.910;7.724;2022-09-03T14:22:52;4.25;;;1.70;;
39264;SDS011;42646;51.910;7.724;2022-09-03T14:25:26;2.80;;;1.70;;
39264;SDS011;42646;51.910;7.724;2022-09-03T14:27:54;3.17;;;1.70;;
39264;SDS011;42646;51.910;7.724;2022-09-03T14:30:39;3.38;;;1.60;;
39264;SDS011;42646;51.910;7.724;2022-09-03T14:33:22;3.42;;;1.80;;
39264;SDS011;42646;51.910;7.724;2022-09-03T14:36:00;2.33;;;1.65;;
39264;SDS011;42646;51.910;7.724;2022-09-03T14:38:39;3.63;;;1.80;;
39264;SDS011;42646;51.910;7.724;2022-09-03T14:41:45;4.05;;;1.90;;
39264;SDS011;42646;51.910;7.724;2022-09-03T14:44:26;3.85;;;1.67;;
39264;SDS011;42646;51.910;7.724;2022-09-03T14:47:18;3.10;;;1.73;;
39264;SDS011;42646;51.910;7.724;2022-09-03T14:49:59;3.95;;;1.80;;
39264;SDS011;42646;51.910;7.724;2022-09-03T14:52:40;3.03;;;1.80;;
39264;SDS011;42646;51.910;7.724;2022-09-03T14:55:31;2.88;;;1.85;;
39264;SDS011;42646;51.910;7.724;2022-09-03T14:58:23;3.67;;;1.90;;
39264;SDS011;42646;51.910;7.724;2022-09-03T15:01:01;2.78;;;1.63;;
39264;SDS011;42646;51.910;7.724;2022-09-03T15:03:42;4.15;;;1.70;;
39264;SDS011;42646;51.910;7.724;2022-09-03T15:06:23;4.50;;;2.03;;
39264;SDS011;42646;51.910;7.724;2022-09-03T15:09:07;3.80;;;1.90;;
39264;SDS011;42646;51.910;7.724;2022-09-03T15:11:46;3.58;;;1.90;;
39264;SDS011;42646;51.910;7.724;2022-09-03T15:14:18;7.65;;;1.80;;
39264;SDS011;42646;51.910;7.724;2022-09-03T15:16:52;3.15;;;1.55;;
39264;SDS011;42646;51.910;7.724;2022-09-03T15:22:26;2.60;;;1.60;;
39264;SDS011;42646;51.910;7.724;2022-09-03T15:25:10;2.78;;;1.60;;
39264;SDS011;42646;51.910;7.724;2022-09-03T15:27:51;2.75;;;1.50;;
39264;SDS011;42646;51.910;7.724;2022-09-03T15:30:32;3.53;;;1.60;;
39264;SDS011;42646;51.910;7.724;2022-09-03T15:33:06;3.85;;;1.63;;
39264;SDS011;42646;51.910;7.724;2022-09-03T15:35:44;3.45;;;1.48;;
39264;SDS011;42646;51.910;7.724;2022-09-03T15:38:28;4.55;;;1.70;;
39264;SDS011;42646;51.910;7.724;2022-09-03T15:41:07;2.45;;;1.52;;
39264;SDS011;42646;51.910;7.724;2022-09-03T15:43:45;3.08;;;1.60;;
39264;SDS011;42646;51.910;7.724;2022-09-03T15:46:29;4.40;;;1.50;;